createdAt,value
2023-02-28T04:11:56.715Z,9.50
2023-02-28T04:14:25.266Z,8.77
2023-02-28T04:16:53.652Z,8.27
2023-02-28T04:19:22.222Z,8.43
2023-02-28T04:21:53.828Z,8.23
2023-02-28T04:24:25.729Z,8.30
2023-02-28T04:26:58.891Z,8.90
2023-02-28T04:29:30.184Z,8.50
2023-02-28T04:32:00.195Z,8.37
2023-02-28T04:34:29.468Z,8.73
2023-02-28T04:37:14.504Z,8.60
2023-02-28T04:39:43.337Z,8.67
2023-02-28T04:42:13.717Z,8.53
2023-02-28T04:44:42.315Z,9.70
2023-02-28T04:47:10.783Z,8.73
2023-02-28T04:49:39.196Z,9.57
2023-02-28T04:52:08.618Z,8.30
2023-02-28T04:54:36.999Z,8.00
2023-02-28T04:57:05.481Z,9.77
2023-02-28T04:59:35.294Z,9.77
2023-02-28T05:02:07.812Z,8.53
2023-02-28T05:04:36.765Z,8.93
2023-02-28T05:07:05.487Z,9.47
2023-02-28T05:09:35.013Z,9.53
2023-02-28T05:12:03.444Z,9.70
2023-02-28T05:14:31.842Z,9.23
2023-02-28T05:17:01.442Z,9.83
2023-02-28T05:19:29.821Z,9.20
2023-02-28T05:21:58.350Z,9.63
2023-02-28T05:24:27.110Z,9.97
2023-02-28T05:26:56.428Z,9.53
2023-02-28T05:29:25.002Z,9.83
2023-02-28T05:31:53.349Z,10.27
2023-02-28T05:34:23.109Z,9.57
2023-02-28T05:36:51.463Z,10.03
2023-02-28T05:39:19.699Z,10.40
2023-02-28T05:41:47.958Z,9.77
2023-02-28T05:44:17.290Z,10.13
2023-02-28T05:46:45.857Z,10.00
2023-02-28T05:49:14.414Z,9.60
2023-02-28T05:51:44.288Z,9.37
2023-02-28T05:54:13.942Z,8.70
2023-02-28T05:56:45.198Z,10.07
2023-02-28T05:59:13.832Z,9.73
2023-02-28T06:01:49.130Z,10.20
2023-02-28T06:04:31.139Z,10.70
2023-02-28T06:07:02.669Z,9.07
2023-02-28T06:09:31.301Z,9.70
2023-02-28T06:12:00.619Z,9.97
2023-02-28T06:14:28.899Z,10.67
2023-02-28T06:16:58.992Z,10.43
2023-02-28T06:19:27.865Z,9.70
2023-02-28T06:21:57.913Z,9.67
2023-02-28T06:24:29.916Z,9.83
2023-02-28T06:26:59.880Z,9.23
2023-02-28T06:29:28.357Z,9.77
2023-02-28T06:31:56.639Z,9.43
2023-02-28T06:34:24.939Z,9.77
2023-02-28T06:36:54.198Z,10.13
2023-02-28T06:39:22.849Z,9.60
2023-02-28T06:41:56.141Z,10.40
2023-02-28T06:44:25.574Z,8.93
2023-02-28T06:46:54.030Z,9.70
2023-02-28T06:49:24.385Z,9.20
2023-02-28T06:51:52.695Z,9.87
2023-02-28T06:54:21.134Z,9.53
2023-02-28T06:56:49.865Z,9.93
2023-02-28T06:59:19.627Z,9.77
2023-02-28T07:01:48.156Z,9.10
2023-02-28T07:04:16.489Z,8.70
2023-02-28T07:06:44.744Z,8.60
2023-02-28T07:09:13.325Z,7.97
2023-02-28T07:11:46.329Z,7.03
2023-02-28T07:14:19.598Z,7.17
2023-02-28T07:16:49.727Z,6.90
2023-02-28T07:19:18.097Z,7.97
2023-02-28T07:21:46.357Z,6.18
2023-02-28T07:24:16.811Z,6.85
2023-02-28T07:26:45.107Z,6.80
2023-02-28T07:29:13.423Z,7.15
2023-02-28T07:31:41.810Z,7.18
2023-02-28T07:34:11.498Z,8.45
2023-02-28T07:36:39.733Z,9.07
2023-02-28T07:39:10.518Z,9.20
2023-02-28T07:41:44.211Z,7.85
2023-02-28T07:44:12.679Z,7.55
2023-02-28T07:46:43.178Z,5.22
2023-02-28T07:49:12.994Z,4.82
2023-02-28T07:51:41.297Z,4.28
2023-02-28T07:54:09.617Z,4.80
2023-02-28T07:56:38.271Z,4.50
2023-02-28T07:59:06.566Z,4.90
2023-02-28T08:01:34.899Z,4.97
2023-02-28T08:04:03.249Z,5.00
2023-02-28T08:06:33.891Z,4.80
2023-02-28T08:09:02.139Z,5.22
2023-02-28T08:11:30.739Z,5.18
2023-02-28T08:13:59.158Z,5.13
2023-02-28T08:16:27.503Z,4.95
2023-02-28T08:18:55.865Z,4.55
2023-02-28T08:21:24.427Z,4.88
2023-02-28T08:23:54.262Z,4.45
2023-02-28T08:26:22.764Z,4.77
2023-02-28T08:28:51.614Z,5.03
2023-02-28T08:31:20.924Z,4.83
2023-02-28T08:33:52.065Z,5.07
2023-02-28T08:36:21.630Z,4.50
2023-02-28T08:38:49.971Z,5.47
2023-02-28T08:41:19.930Z,5.37
2023-02-28T08:43:48.305Z,5.97
2023-02-28T08:46:16.754Z,5.03
2023-02-28T08:48:46.311Z,5.60
2023-02-28T08:51:19.667Z,5.50
2023-02-28T08:53:50.373Z,5.30
2023-02-28T08:56:20.197Z,6.10
2023-02-28T08:58:49.529Z,6.17
2023-02-28T09:01:19.920Z,6.10
2023-02-28T09:03:49.654Z,6.47
2023-02-28T09:06:19.700Z,6.10
2023-02-28T09:08:48.534Z,6.40
2023-02-28T09:11:17.527Z,6.27
2023-02-28T09:13:48.002Z,6.40
2023-02-28T09:16:19.357Z,6.30
2023-02-28T09:18:55.703Z,7.47
2023-02-28T09:21:29.322Z,6.53
2023-02-28T09:24:00.204Z,6.70
2023-02-28T09:26:35.312Z,6.93
2023-02-28T09:29:13.462Z,6.13
2023-02-28T09:31:42.009Z,7.53
2023-02-28T09:34:10.480Z,7.10
2023-02-28T09:36:45.127Z,7.50
2023-02-28T09:39:16.529Z,7.07
2023-02-28T09:41:51.734Z,7.77
2023-02-28T09:44:31.645Z,7.47
2023-02-28T09:47:03.145Z,7.50
2023-02-28T09:49:42.336Z,7.03
2023-02-28T09:52:20.479Z,8.00
2023-02-28T09:54:49.350Z,7.63
2023-02-28T09:57:30.012Z,8.00
2023-02-28T10:00:11.469Z,8.23
2023-02-28T10:03:13.316Z,8.83
2023-02-28T10:05:45.556Z,8.03
2023-02-28T10:08:17.361Z,8.17
2023-02-28T10:10:48.793Z,8.07
2023-02-28T10:13:23.997Z,7.80
2023-02-28T10:15:59.367Z,8.57
2023-02-28T10:18:32.734Z,7.97
2023-02-28T10:21:01.826Z,8.23
2023-02-28T10:23:36.442Z,7.60
2023-02-28T10:26:13.737Z,8.40
2023-02-28T10:28:42.529Z,8.97
2023-02-28T10:31:14.918Z,8.70
2023-02-28T10:33:43.195Z,8.80
2023-02-28T10:36:17.685Z,8.20
2023-02-28T10:38:47.876Z,9.30
2023-02-28T10:41:28.964Z,8.23
2023-02-28T10:44:16.351Z,8.97
2023-02-28T10:46:47.434Z,8.50
2023-02-28T10:49:21.506Z,8.20
2023-02-28T10:51:53.693Z,8.67
2023-02-28T10:54:25.392Z,8.37
2023-02-28T10:57:18.813Z,8.10
2023-02-28T10:59:47.651Z,8.13
2023-02-28T11:02:37.564Z,8.20
2023-02-28T11:05:26.661Z,7.33
2023-02-28T11:07:56.021Z,8.53
2023-02-28T11:10:29.741Z,7.60
2023-02-28T11:13:01.207Z,8.00
2023-02-28T11:15:32.041Z,7.25
2023-02-28T11:18:04.662Z,7.30
2023-02-28T11:20:35.570Z,7.40
2023-02-28T11:23:06.813Z,8.15
2023-02-28T11:25:38.774Z,8.10
2023-02-28T11:28:08.646Z,8.63
2023-02-28T11:30:39.366Z,7.97
2023-02-28T11:33:43.649Z,8.07
2023-02-28T11:36:14.967Z,7.93
2023-02-28T11:38:43.840Z,7.72
2023-02-28T11:41:55.388Z,7.53
2023-02-28T11:44:33.015Z,7.82
2023-02-28T11:47:09.025Z,8.00
2023-02-28T11:49:50.652Z,8.40
2023-02-28T11:52:26.952Z,7.88
2023-02-28T11:55:16.078Z,8.60
2023-02-28T11:58:07.800Z,8.38
2023-02-28T12:00:47.064Z,10.00
2023-02-28T12:03:27.751Z,9.63
2023-02-28T12:06:06.645Z,15.63
2023-02-28T12:08:49.563Z,9.63
2023-02-28T12:11:29.266Z,9.27
2023-02-28T12:14:11.976Z,9.18
2023-02-28T12:16:59.521Z,9.07
2023-02-28T12:19:32.233Z,9.70
2023-02-28T12:22:21.639Z,9.77
2023-02-28T12:25:05.227Z,8.93
2023-02-28T12:27:43.120Z,8.63
2023-02-28T12:30:19.943Z,8.07
2023-02-28T12:32:52.144Z,8.97
2023-02-28T12:35:35.816Z,8.63
2023-02-28T12:38:15.293Z,8.70
2023-02-28T12:40:50.319Z,8.37
2023-02-28T12:43:22.744Z,8.63
2023-02-28T12:45:55.784Z,8.03
2023-02-28T12:48:44.156Z,8.00
2023-02-28T12:51:15.958Z,8.17
2023-02-28T12:53:57.005Z,8.77
2023-02-28T12:56:36.882Z,8.57
2023-02-28T12:59:16.137Z,7.83
2023-02-28T13:02:12.386Z,7.60
2023-02-28T13:05:25.844Z,8.07
2023-02-28T13:08:41.636Z,7.93
2023-02-28T13:11:26.543Z,8.77
2023-02-28T13:14:01.156Z,8.17
2023-02-28T13:16:29.642Z,8.23
2023-02-28T13:19:12.731Z,8.10
2023-02-28T13:21:46.568Z,8.37
2023-02-28T13:24:47.059Z,7.33
2023-02-28T13:27:26.662Z,7.63
2023-02-28T13:29:55.623Z,8.07
2023-02-28T13:32:37.727Z,8.07
2023-02-28T13:35:40.573Z,8.03
2023-02-28T13:38:36.956Z,8.63
2023-02-28T13:41:57.130Z,8.27
2023-02-28T13:44:27.886Z,7.17
2023-02-28T13:47:25.731Z,7.20
2023-02-28T13:49:54.876Z,6.90
2023-02-28T13:52:26.276Z,7.30
2023-02-28T13:55:30.535Z,7.50
2023-02-28T13:58:21.144Z,7.40
2023-02-28T14:01:14.479Z,7.90
2023-02-28T14:04:20.682Z,7.50
2023-02-28T14:06:52.283Z,7.30
2023-02-28T14:09:27.075Z,7.57
2023-02-28T14:11:55.906Z,7.93
2023-02-28T14:15:00.797Z,7.70
2023-02-28T14:17:30.972Z,9.10
2023-02-28T14:20:00.707Z,8.40
2023-02-28T14:22:48.965Z,8.10
2023-02-28T14:25:26.383Z,6.40
2023-02-28T14:28:05.316Z,6.83
2023-02-28T14:30:54.974Z,7.73
2023-02-28T14:33:34.189Z,6.93
2023-02-28T14:36:14.488Z,7.80
2023-02-28T14:38:47.351Z,7.50
2023-02-28T14:41:21.882Z,8.27
2023-02-28T14:43:55.020Z,6.90
2023-02-28T14:46:28.337Z,7.10
2023-02-28T14:49:01.596Z,7.50
2023-02-28T14:51:32.901Z,7.67
2023-02-28T14:54:03.865Z,7.70
2023-02-28T14:56:37.998Z,7.60
2023-02-28T14:59:26.502Z,7.73
2023-02-28T15:02:09.872Z,6.57
2023-02-28T15:04:39.791Z,6.17
2023-02-28T15:07:11.046Z,7.13
2023-02-28T15:09:39.479Z,6.27
2023-02-28T15:12:08.404Z,6.37
2023-02-28T15:14:41.107Z,7.97
2023-02-28T15:17:23.638Z,7.40
2023-02-28T15:19:55.635Z,8.07
2023-02-28T15:22:31.248Z,8.47
2023-02-28T15:25:01.776Z,7.97
2023-02-28T15:27:33.536Z,7.57
2023-02-28T15:30:08.023Z,7.23
2023-02-28T15:32:39.941Z,7.03
2023-02-28T15:35:32.524Z,7.67
2023-02-28T15:38:08.475Z,8.37
2023-02-28T15:40:40.647Z,8.90
2023-02-28T15:43:17.617Z,7.50
2023-02-28T15:45:50.853Z,7.60
2023-02-28T15:48:23.256Z,8.50
2023-02-28T15:50:58.962Z,8.10
2023-02-28T15:53:31.742Z,8.27
2023-02-28T15:56:04.374Z,8.30
2023-02-28T15:58:33.137Z,10.63
2023-02-28T16:01:20.041Z,9.70
2023-02-28T16:03:51.327Z,10.10
2023-02-28T16:06:43.628Z,10.43
2023-02-28T16:09:14.325Z,10.30
2023-02-28T16:11:46.487Z,11.37
2023-02-28T16:14:18.566Z,9.73
2023-02-28T16:16:48.805Z,10.47
2023-02-28T16:19:17.867Z,9.40
2023-02-28T16:21:48.328Z,10.57
2023-02-28T16:24:17.184Z,8.90
2023-02-28T16:26:49.447Z,10.93
2023-02-28T16:29:22.049Z,10.07
2023-02-28T16:31:50.757Z,10.87
2023-02-28T16:34:19.173Z,11.00
2023-02-28T16:36:50.942Z,13.30
2023-02-28T16:39:21.788Z,15.10
2023-02-28T16:41:51.800Z,15.13
2023-02-28T16:44:28.738Z,16.07
2023-02-28T16:46:57.332Z,17.27
2023-02-28T16:49:25.631Z,16.83
2023-02-28T16:51:55.441Z,16.63
2023-02-28T16:54:23.809Z,18.00
2023-02-28T16:56:52.460Z,18.43
2023-02-28T16:59:23.583Z,16.77
2023-02-28T17:01:52.689Z,16.33
2023-02-28T17:04:21.444Z,17.03
2023-02-28T17:06:50.094Z,19.23
2023-02-28T17:09:22.946Z,18.57
2023-02-28T17:11:52.883Z,17.50
2023-02-28T17:14:22.141Z,17.40
2023-02-28T17:16:50.495Z,18.63
2023-02-28T17:19:19.302Z,19.03
2023-02-28T17:21:47.935Z,20.50
2023-02-28T17:24:25.326Z,21.70
2023-02-28T17:26:55.204Z,24.53
2023-02-28T17:29:25.800Z,25.33
2023-02-28T17:31:54.602Z,20.30
2023-02-28T17:34:23.215Z,21.07
2023-02-28T17:36:53.936Z,20.27
2023-02-28T17:39:25.365Z,21.10
2023-02-28T17:41:56.313Z,22.37
2023-02-28T17:44:26.241Z,24.90
2023-02-28T17:46:56.969Z,23.50
2023-02-28T17:49:25.589Z,25.97
2023-02-28T17:51:53.855Z,28.07
2023-02-28T17:54:22.215Z,28.57
2023-02-28T17:56:50.519Z,26.17
2023-02-28T17:59:20.373Z,24.70
2023-02-28T18:01:48.796Z,23.17
2023-02-28T18:04:17.119Z,23.03
2023-02-28T18:06:48.798Z,23.80
2023-02-28T18:09:22.591Z,23.60
2023-02-28T18:11:51.240Z,22.60
2023-02-28T18:14:24.482Z,22.37
2023-02-28T18:16:54.064Z,24.63
2023-02-28T18:19:22.715Z,24.17
2023-02-28T18:21:52.527Z,25.57
2023-02-28T18:24:22.745Z,24.50
2023-02-28T18:26:51.525Z,25.97
2023-02-28T18:29:23.658Z,24.40
2023-02-28T18:31:52.767Z,24.67
2023-02-28T18:34:21.568Z,25.90
2023-02-28T18:36:50.995Z,32.97
2023-02-28T18:39:19.979Z,32.63
2023-02-28T18:41:48.384Z,28.83
2023-02-28T18:44:21.250Z,30.10
2023-02-28T18:46:54.441Z,29.30
2023-02-28T18:49:23.290Z,27.67
2023-02-28T18:51:52.975Z,31.93
2023-02-28T18:54:21.274Z,45.17
2023-02-28T18:56:50.936Z,44.30
2023-02-28T18:59:19.295Z,46.33
2023-02-28T19:01:47.664Z,42.77
2023-02-28T19:04:17.586Z,38.43
2023-02-28T19:06:45.839Z,42.07
2023-02-28T19:09:14.231Z,40.87
2023-02-28T19:11:42.676Z,39.57
2023-02-28T19:14:10.951Z,37.97
2023-02-28T19:16:39.386Z,37.27
2023-02-28T19:19:07.731Z,38.97
2023-02-28T19:21:37.570Z,35.53
2023-02-28T19:24:06.294Z,33.93
2023-02-28T19:26:34.697Z,33.77
2023-02-28T19:29:04.770Z,34.80
2023-02-28T19:31:33.732Z,33.63
2023-02-28T19:34:02.578Z,34.07
2023-02-28T19:36:31.040Z,35.20
2023-02-28T19:39:00.826Z,37.20
2023-02-28T19:41:29.497Z,33.67
2023-02-28T19:43:57.943Z,32.93
2023-02-28T19:46:26.298Z,31.47
2023-02-28T19:48:55.315Z,29.67
2023-02-28T19:51:24.261Z,31.40
2023-02-28T19:53:52.894Z,32.77
2023-02-28T19:56:22.680Z,37.17
2023-02-28T19:58:50.981Z,36.30
2023-02-28T20:01:20.934Z,35.67
2023-02-28T20:03:49.951Z,35.43
2023-02-28T20:06:18.522Z,36.87
2023-02-28T20:08:46.895Z,38.30
2023-02-28T20:11:17.021Z,40.47
2023-02-28T20:13:47.242Z,38.83
2023-02-28T20:16:16.654Z,37.10
2023-02-28T20:18:46.293Z,37.17
2023-02-28T20:21:16.650Z,37.73
2023-02-28T20:23:45.937Z,34.47
2023-02-28T20:26:14.486Z,36.97
2023-02-28T20:28:43.959Z,34.87
2023-02-28T20:31:15.103Z,32.13
2023-02-28T20:33:46.597Z,28.53
2023-02-28T20:36:15.945Z,27.03
2023-02-28T20:38:44.806Z,24.07
2023-02-28T20:41:13.879Z,24.83
2023-02-28T20:43:42.783Z,27.90
2023-02-28T20:46:11.504Z,28.53
2023-02-28T20:48:41.505Z,26.27
2023-02-28T20:51:09.955Z,28.13
2023-02-28T20:53:38.678Z,28.17
2023-02-28T20:56:09.045Z,28.97
2023-02-28T20:58:38.916Z,29.43
2023-02-28T21:01:12.902Z,30.67
2023-02-28T21:03:43.030Z,30.63
2023-02-28T21:06:11.861Z,31.30
2023-02-28T21:08:41.417Z,32.60
2023-02-28T21:11:10.906Z,30.33
2023-02-28T21:13:40.328Z,32.53
2023-02-28T21:16:10.684Z,31.00
2023-02-28T21:18:39.937Z,34.00
2023-02-28T21:21:12.366Z,33.50
2023-02-28T21:23:40.795Z,32.43
2023-02-28T21:26:11.123Z,33.70
2023-02-28T21:28:44.150Z,33.03
2023-02-28T21:31:15.755Z,32.47
2023-02-28T21:33:44.942Z,32.27
2023-02-28T21:36:16.429Z,35.10
2023-02-28T21:38:46.201Z,33.77
2023-02-28T21:41:16.323Z,37.43
2023-02-28T21:43:45.632Z,38.20
2023-02-28T21:46:16.310Z,40.00
2023-02-28T21:48:45.469Z,42.57
2023-02-28T21:51:17.495Z,48.07
2023-02-28T21:53:45.995Z,50.23
2023-02-28T21:56:20.065Z,49.33
2023-02-28T21:58:49.635Z,48.77
2023-02-28T22:01:19.884Z,49.50
2023-02-28T22:03:49.951Z,48.17
2023-02-28T22:06:21.938Z,46.70
2023-02-28T22:08:53.148Z,48.33
2023-02-28T22:11:23.057Z,61.00
2023-02-28T22:13:53.665Z,53.37
2023-02-28T22:16:23.937Z,45.27
2023-02-28T22:18:52.870Z,47.37
2023-02-28T22:21:23.672Z,50.63
2023-02-28T22:23:52.216Z,55.53
2023-02-28T22:26:23.029Z,53.73
2023-02-28T22:28:51.786Z,52.77
2023-02-28T22:31:22.716Z,48.03
2023-02-28T22:33:52.952Z,52.93
2023-02-28T22:36:23.356Z,50.70
2023-02-28T22:38:52.589Z,52.27
2023-02-28T22:41:23.495Z,50.43
2023-02-28T22:43:54.521Z,49.00
2023-02-28T22:46:24.900Z,48.13
2023-02-28T22:48:54.030Z,49.63
2023-02-28T22:51:25.793Z,48.73
2023-02-28T22:53:55.963Z,49.50
2023-02-28T22:56:25.769Z,46.33
2023-02-28T22:58:55.897Z,47.13
2023-02-28T23:01:26.999Z,47.50
2023-02-28T23:03:56.016Z,48.70
